3b Victory — 9HA3827 — position and weather

sailwx.info

Track history (hours):
 
Tides and Currents Weather Stations Pressure Air Temp Water Temp Dewpoint Dewpoint Depression Visibility Wind Speed Wind Dir Waves Ship Positions

3b Victory

Last reported at 2017-Dec-02 01:46 UTC. Time now 2017-Dec-11 14:56 UTC.
Position N 37°12' E 015°47'.
Warning: this ship's position is 9 days out of date.

Length 106 m; draft 5 m.

Type: Tanker. MMSI: 256120000.

Date/timePositionNaut miles runAvg speedWind from/ knotsBaromVisibWave heightAir tempDewpointWater temp
2017-Dec-02 01:46N 37°12' E 015°47'  
2017-Nov-24 22:46N 36°02' E 014°51'2 9.4
2017-Nov-24 22:30N 35°60' E 014°49'5 9.3
2017-Nov-24 22:00N 35°56' E 014°46'2 3.3
2017-Nov-24 21:24N 35°54' E 014°45'0 0.0
2017-Nov-24 20:51N 35°54' E 014°45'0 0.0
2017-Nov-24 20:24N 35°54' E 014°45'0 0.0
2017-Nov-24 20:00N 35°54' E 014°45'0 0.0
2017-Nov-24 19:30N 35°54' E 014°45'0 0.0
2017-Nov-24 19:00N 35°54' E 014°45'0 0.0
2017-Nov-24 18:30N 35°54' E 014°45'0 0.0
2017-Nov-24 18:00N 35°54' E 014°45'0 0.0
2017-Nov-24 17:30N 35°54' E 014°45'0 0.1
2017-Nov-24 16:57N 35°54' E 014°45'0 0.2
2017-Nov-24 16:30N 35°54' E 014°45'0 0.0
2017-Nov-24 16:00N 35°54' E 014°45'0 0.0
2017-Nov-24 15:30N 35°54' E 014°45'0 0.0
2017-Nov-24 15:00N 35°54' E 014°45'0 0.0
2017-Nov-24 14:27N 35°54' E 014°45'0 0.0
2017-Nov-24 14:00N 35°54' E 014°45'0 0.0
2017-Nov-24 13:30N 35°54' E 014°45'0 0.0
2017-Nov-24 13:00N 35°54' E 014°45'0 0.1
2017-Nov-24 12:30N 35°54' E 014°45'2 4.8
2017-Nov-24 12:00N 35°56' E 014°42'5 9.0
2017-Nov-24 11:30N 35°58' E 014°38'4 8.6
2017-Nov-24 11:00N 36°01' E 014°33'4 8.4
2017-Nov-24 10:30N 36°03' E 014°29'4 8.4
2017-Nov-24 10:00N 36°05' E 014°25'4 8.5
2017-Nov-24 09:30N 36°08' E 014°21'4 8.5
2017-Nov-24 09:00N 36°10' E 014°16'4 8.4
2017-Nov-24 08:30N 36°10' E 014°11'4 8.6
2017-Nov-24 08:00N 36°10' E 014°05'4 8.6
2017-Nov-24 07:31N 36°11' E 014°00'4 8.4
2017-Nov-24 07:00N 36°11' E 013°55'5 9.3
2017-Nov-24 06:31N 36°11' E 013°49'  
Track history (hours):
 
Tides and Currents Weather Stations Pressure Air Temp Water Temp Dewpoint Dewpoint Depression Visibility Wind Speed Wind Dir Waves Ship Positions

3b Victory

Last reported at 2017-Dec-02 01:46 UTC. Time now 2017-Dec-11 14:56 UTC.
Position N 37°12' E 015°47'.
Warning: this ship's position is 9 days out of date.

Length 106 m; draft 5 m.

Type: Tanker. MMSI: 256120000.

Date/timePositionNaut miles runAvg speedWind from/ knotsBaromVisibWave heightAir tempDewpointWater temp
2017-Dec-02 01:46N 37°12' E 015°47'  
2017-Nov-24 22:46N 36°02' E 014°51'2 9.4
2017-Nov-24 22:30N 35°60' E 014°49'5 9.3
2017-Nov-24 22:00N 35°56' E 014°46'2 3.3
2017-Nov-24 21:24N 35°54' E 014°45'0 0.0
2017-Nov-24 20:51N 35°54' E 014°45'0 0.0
2017-Nov-24 20:24N 35°54' E 014°45'0 0.0
2017-Nov-24 20:00N 35°54' E 014°45'0 0.0
2017-Nov-24 19:30N 35°54' E 014°45'0 0.0
2017-Nov-24 19:00N 35°54' E 014°45'0 0.0
2017-Nov-24 18:30N 35°54' E 014°45'0 0.0
2017-Nov-24 18:00N 35°54' E 014°45'0 0.0
2017-Nov-24 17:30N 35°54' E 014°45'0 0.1
2017-Nov-24 16:57N 35°54' E 014°45'0 0.2
2017-Nov-24 16:30N 35°54' E 014°45'0 0.0
2017-Nov-24 16:00N 35°54' E 014°45'0 0.0
2017-Nov-24 15:30N 35°54' E 014°45'0 0.0
2017-Nov-24 15:00N 35°54' E 014°45'0 0.0
2017-Nov-24 14:27N 35°54' E 014°45'0 0.0
2017-Nov-24 14:00N 35°54' E 014°45'0 0.0
2017-Nov-24 13:30N 35°54' E 014°45'0 0.0
2017-Nov-24 13:00N 35°54' E 014°45'0 0.1
2017-Nov-24 12:30N 35°54' E 014°45'2 4.8
2017-Nov-24 12:00N 35°56' E 014°42'5 9.0
2017-Nov-24 11:30N 35°58' E 014°38'4 8.6
2017-Nov-24 11:00N 36°01' E 014°33'4 8.4
2017-Nov-24 10:30N 36°03' E 014°29'4 8.4
2017-Nov-24 10:00N 36°05' E 014°25'4 8.5
2017-Nov-24 09:30N 36°08' E 014°21'4 8.5
2017-Nov-24 09:00N 36°10' E 014°16'4 8.4
2017-Nov-24 08:30N 36°10' E 014°11'4 8.6
2017-Nov-24 08:00N 36°10' E 014°05'4 8.6
2017-Nov-24 07:31N 36°11' E 014°00'4 8.4
2017-Nov-24 07:00N 36°11' E 013°55'5 9.3
2017-Nov-24 06:31N 36°11' E 013°49'  

Dump ship's entire track history